Pagrindinis puslapis
METAR-TAF:

METAR-TAF

Oro uostai :

Destin-Fort Walton Beach Airport

Destin, Florida, Jungtinės Amerikos Valstijos

platuma: 30-23-36N, ilguma: 086-28-03W, Aukštis: 6 m

Dabartinis oras

Ataskaita buvo paskelbta 50 minutes, ne 06:53 UTC
Vėjas 12 kt iš Šiaurės/Šiaurės Vakarų
Temperatūra 7°C
Drėgmė 66%
Slėgis 1023 hPa
Matomumas: 16.1 km
Giedras dangus

METAR: KDTS 270653Z AUTO 33012KT 10SM CLR 07/01 A3021 RMK AO2 SLP228 T00720011

Laikas: 01:43 (07:43 UTC)


TAF: trūkstamas

Orai ataskaitas ir orų prognozės (METAR, TAF).

turimą stotys yra geltonos ir raudonos taškus žemėlapyje.

Perkelti pele per norėdami pamatyti stoties vardą.

Tada spustelėkite, norėdami matyti oro stebėjimo ir prognozės.

Norėdami pakeisti žemėlapį: spustelėkite ant žalios mygtukų su juodo kryžiaus žemyn,; žalią mygtuką su brūkšneliu, jei norite nutolinti; arba žalių rodyklių gretimoms žemėlapius.


METAR-TAF: